This is the latest recevied weather packets stored in our database for station/object IW0RQH-13. If no packets are shown the sender has not sent any weather packets the latest 10 day(s).
| Time | Temp. | Humidity | Pressure | Rain* | Wind** | Luminosity | Snow |
|---|---|---|---|---|---|---|---|
| 1777267084 | 9.44° C | 81% | 1018.7 hPa | 0 mm | - | 96 W/m² | - |
| 1777265128 | 10° C | 78% | 1018.4 hPa | 0 mm | - | 24 W/m² | - |
| 1777259883 | 10.56° C | 75% | 1018.3 hPa | 0 mm | - | 0 W/m² | - |
| 1777257905 | 11.11° C | 73% | 1018.4 hPa | 0 mm | - | 0 W/m² | - |
| 1777255226 | 11.11° C | 71% | 1018.2 hPa | 0 mm | - | 0 W/m² | - |
| 1777254844 | 11.67° C | 71% | 1018.2 hPa | 0 mm | - | 0 W/m² | - |
| 1777253225 | 11.11° C | 74% | 1018.5 hPa | 0 mm | - | 0 W/m² | - |
| 1777250710 | 12.22° C | 68% | 1018.5 hPa | 0 mm | - | 0 W/m² | - |
| 1777248543 | 12.78° C | 66% | 1018.6 hPa | 0 mm | - | 0 W/m² | - |
| 1777247106 | 12.78° C | 67% | 1018.5 hPa | 0 mm | - | 0 W/m² | - |
| 1777242423 | 13.89° C | 62% | 1018.3 hPa | 0 mm | - | 0 W/m² | - |
| 1777241884 | 13.89° C | 61% | 1018.1 hPa | 0 mm | - | 0 W/m² | - |
| 1777241343 | 13.89° C | 61% | 1018.1 hPa | 0 mm | - | 0 W/m² | - |
| 1777240450 | 14.44° C | 60% | 1018.3 hPa | 0 mm | - | 0 W/m² | - |
| 1777239903 | 14.44° C | 59% | 1018.3 hPa | 0 mm | - | 0 W/m² | - |
| 1777238284 | 15° C | 57% | 1018 hPa | 0 mm | - | 0 W/m² | - |
| 1777235785 | 15.56° C | 56% | 1018.2 hPa | 0 mm | - | 0 W/m² | - |
| 1777230568 | 17.22° C | 52% | 1017.3 hPa | 0 mm | - | 0 W/m² | - |
| 1777230006 | 17.78° C | 52% | 1017.2 hPa | 0 mm | - | 0 W/m² | - |
| 1777227483 | 21.11° C | 43% | 1016.8 hPa | 0 mm | - | 0 W/m² | - |
| 1777224964 | 22.78° C | 38% | 1016.2 hPa | 0 mm | - | 21 W/m² | - |
| 1777223343 | 23.33° C | 37% | 1016.1 hPa | 0 mm | - | 52 W/m² | - |
| 1777221903 | 23.33° C | 36% | 1016 hPa | 0 mm | - | 90 W/m² | - |
| 1777221366 | 23.89° C | 35% | 1016.2 hPa | 0 mm | - | 107 W/m² | - |
| 1777219746 | 23.89° C | 34% | 1016.3 hPa | 0 mm | - | 161 W/m² | - |
* Rain latest hour (hover to see other rain measurements)
** Current wind speed in m/s (hover to see current wind gust speed)